createdAt,value
2022-11-23T00:01:19.628Z,12.45
2022-11-23T00:03:48.695Z,12.45
2022-11-23T00:06:16.158Z,12.46
2022-11-23T00:08:42.901Z,12.47
2022-11-23T00:11:09.765Z,12.49
2022-11-23T00:13:36.871Z,12.51
2022-11-23T00:16:07.892Z,12.51
2022-11-23T00:18:34.833Z,12.53
2022-11-23T00:21:06.455Z,12.53
2022-11-23T00:23:33.182Z,12.54
2022-11-23T00:25:59.709Z,12.53
2022-11-23T00:28:26.182Z,12.53
2022-11-23T00:30:52.773Z,12.53
2022-11-23T00:33:19.303Z,12.53
2022-11-23T00:35:45.853Z,12.52
2022-11-23T00:38:12.438Z,12.52
2022-11-23T00:40:39.103Z,12.50
2022-11-23T00:43:05.652Z,12.50
2022-11-23T00:45:32.871Z,12.51
2022-11-23T00:47:59.352Z,12.52
2022-11-23T00:50:25.884Z,12.54
2022-11-23T00:52:52.370Z,12.55
2022-11-23T00:55:19.666Z,12.55
2022-11-23T00:57:46.192Z,12.55
2022-11-23T01:00:13.121Z,12.56
2022-11-23T01:02:40.210Z,12.56
2022-11-23T01:05:07.002Z,12.57
2022-11-23T01:07:33.649Z,12.56
2022-11-23T01:10:00.264Z,12.54
2022-11-23T01:12:29.213Z,12.53
2022-11-23T01:14:55.700Z,12.52
2022-11-23T01:17:22.397Z,12.54
2022-11-23T01:19:48.904Z,12.54
2022-11-23T01:22:15.499Z,12.54
2022-11-23T01:24:42.571Z,12.54
2022-11-23T01:27:09.103Z,12.54
2022-11-23T01:29:35.618Z,12.56
2022-11-23T01:32:02.219Z,12.57
2022-11-23T01:34:28.856Z,12.56
2022-11-23T01:36:58.319Z,12.55
2022-11-23T01:39:27.650Z,12.56
2022-11-23T01:41:54.107Z,12.56
2022-11-23T01:44:32.429Z,12.55
2022-11-23T01:47:04.727Z,12.56
2022-11-23T01:49:44.868Z,12.56
2022-11-23T01:52:25.023Z,12.57
2022-11-23T01:54:54.808Z,12.59
2022-11-23T01:57:25.441Z,12.58
2022-11-23T01:59:53.358Z,12.60
2022-11-23T02:02:19.876Z,12.57
2022-11-23T02:04:52.145Z,12.57
2022-11-23T02:07:19.449Z,12.56
2022-11-23T02:09:46.942Z,12.56
2022-11-23T02:12:14.642Z,12.56
2022-11-23T02:14:43.295Z,12.54
2022-11-23T02:17:10.695Z,12.53
2022-11-23T02:20:10.244Z,12.51
2022-11-23T02:22:36.689Z,12.52
2022-11-23T02:25:10.939Z,12.50
2022-11-23T02:27:37.432Z,12.49
2022-11-23T02:30:04.421Z,12.50
2022-11-23T02:32:31.548Z,12.51
2022-11-23T02:34:58.254Z,12.51
2022-11-23T02:37:25.371Z,12.53
2022-11-23T02:39:54.527Z,12.52
2022-11-23T02:42:21.265Z,12.52
2022-11-23T02:44:56.913Z,12.54
2022-11-23T02:47:23.542Z,12.55
2022-11-23T02:49:50.170Z,12.55
2022-11-23T02:52:18.844Z,12.55
2022-11-23T02:54:45.750Z,12.57
2022-11-23T02:57:12.940Z,12.57
2022-11-23T02:59:43.988Z,12.59
2022-11-23T03:02:11.325Z,12.60
2022-11-23T03:04:37.823Z,12.58
2022-11-23T03:07:04.297Z,12.57
2022-11-23T03:09:32.749Z,12.57
2022-11-23T03:11:59.415Z,12.58
2022-11-23T03:14:28.061Z,12.59
2022-11-23T03:16:58.781Z,12.60
2022-11-23T03:19:25.416Z,12.60
2022-11-23T03:21:53.147Z,12.61
2022-11-23T03:24:19.759Z,12.62
2022-11-23T03:26:48.000Z,12.65
2022-11-23T03:29:19.171Z,12.67
2022-11-23T03:31:46.739Z,12.66
2022-11-23T03:34:15.104Z,12.64
2022-11-23T03:36:43.272Z,12.64
2022-11-23T03:39:09.943Z,12.64
2022-11-23T03:41:55.028Z,12.64
2022-11-23T03:44:24.683Z,12.63
2022-11-23T03:46:51.222Z,12.63
2022-11-23T03:49:17.725Z,12.63
2022-11-23T03:51:44.749Z,12.63
2022-11-23T03:54:12.148Z,12.61
2022-11-23T03:56:38.942Z,12.63
2022-11-23T03:59:05.643Z,12.63
2022-11-23T04:01:32.619Z,12.63
2022-11-23T04:04:04.211Z,12.63
2022-11-23T04:06:57.112Z,12.64
2022-11-23T04:09:27.407Z,12.63
2022-11-23T04:12:03.273Z,12.62
2022-11-23T04:14:30.039Z,12.63
2022-11-23T04:16:59.008Z,12.63
2022-11-23T04:19:25.672Z,12.62
2022-11-23T04:21:52.232Z,12.61
2022-11-23T04:24:18.888Z,12.61
2022-11-23T04:26:46.547Z,12.60
2022-11-23T04:29:13.139Z,12.61
2022-11-23T04:31:44.365Z,12.59
2022-11-23T04:34:16.902Z,12.57
2022-11-23T04:36:43.647Z,12.53
2022-11-23T04:39:12.540Z,12.50
2022-11-23T04:41:55.900Z,12.50
2022-11-23T04:44:22.709Z,12.53
2022-11-23T04:46:55.281Z,12.53
2022-11-23T04:49:22.133Z,12.53
2022-11-23T04:51:48.921Z,12.50
2022-11-23T04:54:18.501Z,12.49
2022-11-23T04:56:49.977Z,12.47
2022-11-23T04:59:17.674Z,12.45
2022-11-23T05:01:45.201Z,12.46
2022-11-23T05:04:30.127Z,12.46
2022-11-23T05:06:57.330Z,12.46
2022-11-23T05:09:24.367Z,12.45
2022-11-23T05:12:00.108Z,12.46
2022-11-23T05:14:27.135Z,12.44
2022-11-23T05:16:53.668Z,12.43
2022-11-23T05:19:20.865Z,12.43
2022-11-23T05:21:47.564Z,12.43
2022-11-23T05:24:15.512Z,12.43
2022-11-23T05:26:56.228Z,12.45
2022-11-23T05:29:23.266Z,12.45
2022-11-23T05:31:49.856Z,12.47
2022-11-23T05:34:17.285Z,12.46
2022-11-23T05:36:46.351Z,12.45
2022-11-23T05:39:13.724Z,12.44
2022-11-23T05:41:40.288Z,12.41
2022-11-23T05:44:20.232Z,12.43
2022-11-23T05:46:47.099Z,12.43
2022-11-23T05:49:14.548Z,12.37
2022-11-23T05:51:41.163Z,12.36
2022-11-23T05:54:08.368Z,12.34
2022-11-23T05:56:45.548Z,12.33
2022-11-23T05:59:15.316Z,12.30
2022-11-23T06:01:45.956Z,12.29
2022-11-23T06:04:20.075Z,12.29
2022-11-23T06:06:46.728Z,12.29
2022-11-23T06:09:13.259Z,12.28
2022-11-23T06:11:44.719Z,12.27
2022-11-23T06:14:14.790Z,12.25
2022-11-23T06:16:44.376Z,12.22
2022-11-23T06:19:20.827Z,12.22
2022-11-23T06:21:50.484Z,12.21
2022-11-23T06:24:19.217Z,12.19
2022-11-23T06:26:52.368Z,12.21
2022-11-23T06:29:20.564Z,12.19
2022-11-23T06:31:47.247Z,12.18
2022-11-23T06:34:14.424Z,12.20
2022-11-23T06:36:41.126Z,12.18
2022-11-23T06:39:08.176Z,12.18
2022-11-23T06:41:34.890Z,12.14
2022-11-23T06:44:02.723Z,12.15
2022-11-23T06:46:38.571Z,12.14
2022-11-23T06:49:05.150Z,12.13
2022-11-23T06:51:31.744Z,12.13
2022-11-23T06:53:58.261Z,12.13
2022-11-23T06:56:25.938Z,12.12
2022-11-23T06:58:52.520Z,12.15
2022-11-23T07:01:23.278Z,12.16
2022-11-23T07:03:55.664Z,12.18
2022-11-23T07:06:32.540Z,12.19
2022-11-23T07:09:04.051Z,12.16
2022-11-23T07:11:59.507Z,12.16
2022-11-23T07:14:26.291Z,12.16
2022-11-23T07:16:55.591Z,12.18
2022-11-23T07:19:22.788Z,12.20
2022-11-23T07:21:50.988Z,12.22
2022-11-23T07:24:17.528Z,12.22
2022-11-23T07:26:44.027Z,12.20
2022-11-23T07:29:10.971Z,12.20
2022-11-23T07:31:38.242Z,12.22
2022-11-23T07:34:05.201Z,12.22
2022-11-23T07:36:33.269Z,12.22
2022-11-23T07:38:59.884Z,12.21
2022-11-23T07:41:27.636Z,12.22
2022-11-23T07:44:17.183Z,12.23
2022-11-23T07:46:44.867Z,12.20
2022-11-23T07:49:11.394Z,12.21
2022-11-23T07:51:37.950Z,12.19
2022-11-23T07:54:04.468Z,12.18
2022-11-23T07:56:30.965Z,12.17
2022-11-23T07:58:57.448Z,12.13
2022-11-23T08:01:23.997Z,12.14
2022-11-23T08:03:50.727Z,12.07
2022-11-23T08:06:17.344Z,12.06
2022-11-23T08:08:44.697Z,12.06
2022-11-23T08:11:14.820Z,12.07
2022-11-23T08:13:41.696Z,12.07
2022-11-23T08:16:08.577Z,12.07
2022-11-23T08:18:35.321Z,12.09
2022-11-23T08:21:02.088Z,12.12
2022-11-23T08:23:29.293Z,12.14
2022-11-23T08:25:56.170Z,12.17
2022-11-23T08:28:23.095Z,12.23
2022-11-23T08:30:50.180Z,12.24
2022-11-23T08:33:17.267Z,12.27
2022-11-23T08:35:43.831Z,12.28
2022-11-23T08:38:11.279Z,12.32
2022-11-23T08:40:38.616Z,12.37
2022-11-23T08:43:05.786Z,12.44
2022-11-23T08:45:32.303Z,12.51
2022-11-23T08:48:03.189Z,12.58
2022-11-23T08:50:30.467Z,12.65
2022-11-23T08:52:58.642Z,12.75
2022-11-23T08:55:26.767Z,12.83
2022-11-23T08:57:57.703Z,12.92
2022-11-23T09:00:25.046Z,13.00
2022-11-23T09:02:51.680Z,13.07
2022-11-23T09:05:18.213Z,13.12
2022-11-23T09:07:44.812Z,13.19
2022-11-23T09:10:17.902Z,13.22
2022-11-23T09:12:46.408Z,13.28
2022-11-23T09:15:12.982Z,13.28
2022-11-23T09:17:39.749Z,13.27
2022-11-23T09:20:06.964Z,13.24
2022-11-23T09:22:33.547Z,13.21
2022-11-23T09:25:00.221Z,13.18
2022-11-23T09:27:26.912Z,13.17
2022-11-23T09:29:53.467Z,13.16
2022-11-23T09:32:19.927Z,13.15
2022-11-23T09:34:46.536Z,13.14
2022-11-23T09:37:14.039Z,13.17
2022-11-23T09:39:40.595Z,13.20
2022-11-23T09:42:44.590Z,13.23
2022-11-23T09:45:37.709Z,13.23
2022-11-23T09:48:18.074Z,13.24
2022-11-23T09:50:54.221Z,13.26
2022-11-23T09:53:28.668Z,13.28
2022-11-23T09:55:56.883Z,13.33
2022-11-23T09:58:27.978Z,13.38
2022-11-23T10:01:02.019Z,13.40
2022-11-23T10:03:32.897Z,13.43
2022-11-23T10:06:07.391Z,13.46
2022-11-23T10:08:47.410Z,13.55
2022-11-23T10:11:44.939Z,13.62
2022-11-23T10:14:35.455Z,13.74
2022-11-23T10:17:20.032Z,13.84
2022-11-23T10:20:23.928Z,13.94
2022-11-23T10:23:01.836Z,14.04
2022-11-23T10:25:44.663Z,14.08
2022-11-23T10:28:17.240Z,14.12
2022-11-23T10:30:51.007Z,14.16
2022-11-23T10:33:29.908Z,14.24
2022-11-23T10:35:56.368Z,14.34
2022-11-23T10:38:26.682Z,14.39
2022-11-23T10:41:11.727Z,14.46
2022-11-23T10:44:02.093Z,14.54
2022-11-23T10:46:33.159Z,14.59
2022-11-23T10:49:19.490Z,14.59
2022-11-23T10:51:54.875Z,14.65
2022-11-23T10:54:35.951Z,14.75
2022-11-23T10:57:22.288Z,14.87
2022-11-23T11:00:13.025Z,14.97
2022-11-23T11:02:42.090Z,15.03
2022-11-23T11:06:07.026Z,15.07
2022-11-23T11:08:21.070Z,15.15
2022-11-23T11:11:04.778Z,15.20
2022-11-23T11:13:44.903Z,15.21
2022-11-23T11:16:36.440Z,15.23
2022-11-23T11:19:29.229Z,15.27
2022-11-23T11:21:57.960Z,15.34
2022-11-23T11:24:37.856Z,15.36
2022-11-23T11:27:15.716Z,15.38
2022-11-23T11:29:45.273Z,15.41
2022-11-23T11:32:25.861Z,15.38
2022-11-23T11:35:03.543Z,15.38
2022-11-23T11:37:32.981Z,15.38
2022-11-23T11:40:45.415Z,15.40
2022-11-23T11:43:16.032Z,15.41
2022-11-23T11:45:54.484Z,15.43
2022-11-23T11:48:53.500Z,15.42
2022-11-23T11:51:32.045Z,15.40
2022-11-23T11:54:22.790Z,15.35
2022-11-23T11:56:51.882Z,15.26
2022-11-23T11:59:42.613Z,15.19
2022-11-23T12:02:31.841Z,15.14
2022-11-23T12:05:24.083Z,15.07
2022-11-23T12:08:30.711Z,15.07
2022-11-23T12:10:59.095Z,15.10
2022-11-23T12:13:35.200Z,15.09
2022-11-23T12:16:16.212Z,15.08
2022-11-23T12:19:02.895Z,15.07
2022-11-23T12:21:43.503Z,15.07
2022-11-23T12:24:34.564Z,15.08
2022-11-23T12:27:37.196Z,15.12
2022-11-23T12:30:14.981Z,15.16
2022-11-23T12:32:57.583Z,15.18
2022-11-23T12:35:51.176Z,15.25
2022-11-23T12:38:39.149Z,15.28
2022-11-23T12:41:23.908Z,15.34
2022-11-23T12:43:57.720Z,15.39
2022-11-23T12:46:35.304Z,15.41
2022-11-23T12:49:39.310Z,15.42
2022-11-23T12:52:42.396Z,15.41
2022-11-23T12:55:26.110Z,15.41
2022-11-23T12:58:19.571Z,15.43
2022-11-23T13:00:54.279Z,15.39
2022-11-23T13:03:42.708Z,15.31
2022-11-23T13:06:59.319Z,15.22
2022-11-23T13:09:47.079Z,15.18
2022-11-23T13:12:40.052Z,15.12
2022-11-23T13:15:36.418Z,15.07
2022-11-23T13:18:17.924Z,15.04
2022-11-23T13:21:02.764Z,15.02
2022-11-23T13:23:35.175Z,15.00
2022-11-23T13:26:22.645Z,14.94
2022-11-23T13:28:52.175Z,14.89
2022-11-23T13:31:21.045Z,14.82
2022-11-23T13:33:58.867Z,14.76
2022-11-23T13:37:10.419Z,14.71
2022-11-23T13:39:43.167Z,14.68
2022-11-23T13:42:11.409Z,14.66
2022-11-23T13:44:38.141Z,14.63
2022-11-23T13:47:18.099Z,14.60
2022-11-23T13:49:52.960Z,14.60
2022-11-23T13:52:22.763Z,14.57
2022-11-23T13:55:08.853Z,14.53
2022-11-23T13:57:41.813Z,14.50
2022-11-23T14:00:45.589Z,14.48
2022-11-23T14:03:43.289Z,14.45
2022-11-23T14:06:39.923Z,14.41
2022-11-23T14:09:57.068Z,14.37
2022-11-23T14:12:32.248Z,14.39
2022-11-23T14:15:06.291Z,14.40
2022-11-23T14:18:17.676Z,14.34
2022-11-23T14:20:55.577Z,14.29
2022-11-23T14:23:46.687Z,14.17
2022-11-23T14:26:25.159Z,14.08
2022-11-23T14:29:26.756Z,13.99
2022-11-23T14:32:28.824Z,13.92
2022-11-23T14:35:20.549Z,13.79
2022-11-23T14:38:03.772Z,13.68
2022-11-23T14:41:01.333Z,13.54
2022-11-23T14:43:28.894Z,13.45
2022-11-23T14:46:02.881Z,13.37
2022-11-23T14:48:35.083Z,13.30
2022-11-23T14:51:06.009Z,13.29
2022-11-23T14:53:44.059Z,13.25
2022-11-23T14:56:45.233Z,13.22
2022-11-23T14:59:17.728Z,13.18
2022-11-23T15:01:50.406Z,13.13
2022-11-23T15:04:35.252Z,13.08
2022-11-23T15:07:24.795Z,13.08
2022-11-23T15:10:02.315Z,13.08
2022-11-23T15:12:42.488Z,13.00
2022-11-23T15:15:19.373Z,12.94
2022-11-23T15:17:51.941Z,12.90
2022-11-23T15:20:19.088Z,12.87
2022-11-23T15:22:45.724Z,12.83
2022-11-23T15:25:16.148Z,12.81
2022-11-23T15:27:42.833Z,12.76
2022-11-23T15:30:27.143Z,12.72
2022-11-23T15:33:08.893Z,12.67
2022-11-23T15:35:37.921Z,12.62
2022-11-23T15:38:12.022Z,12.59
2022-11-23T15:40:41.434Z,12.57
2022-11-23T15:43:16.365Z,12.58
2022-11-23T15:45:46.195Z,12.59
2022-11-23T15:48:27.352Z,12.57
2022-11-23T15:50:59.837Z,12.53
2022-11-23T15:53:42.436Z,12.51
2022-11-23T15:56:22.486Z,12.50
2022-11-23T15:58:51.273Z,12.51
2022-11-23T16:01:18.142Z,12.49
2022-11-23T16:04:04.870Z,12.49
2022-11-23T16:06:42.481Z,12.50
2022-11-23T16:09:58.463Z,12.47
2022-11-23T16:12:30.375Z,12.45
2022-11-23T16:14:59.260Z,12.41
2022-11-23T16:17:28.151Z,12.40
2022-11-23T16:20:01.645Z,12.40
2022-11-23T16:22:36.641Z,12.43
2022-11-23T16:25:26.430Z,12.45
2022-11-23T16:28:03.844Z,12.50
2022-11-23T16:30:41.713Z,12.49
2022-11-23T16:33:16.770Z,12.51
2022-11-23T16:35:43.722Z,12.49
2022-11-23T16:38:10.665Z,12.46
2022-11-23T16:40:37.406Z,12.41
2022-11-23T16:43:04.331Z,12.41
2022-11-23T16:45:32.110Z,12.40
2022-11-23T16:48:04.993Z,12.39
2022-11-23T16:50:33.781Z,12.39
2022-11-23T16:53:17.621Z,12.39
2022-11-23T16:55:53.371Z,12.42
2022-11-23T16:58:20.520Z,12.43
2022-11-23T17:00:49.103Z,12.40
2022-11-23T17:03:17.062Z,12.41
2022-11-23T17:05:43.807Z,12.43
2022-11-23T17:08:10.477Z,12.45
2022-11-23T17:10:38.729Z,12.47
2022-11-23T17:13:09.756Z,12.47
2022-11-23T17:15:38.078Z,12.50
2022-11-23T17:18:05.181Z,12.50
2022-11-23T17:20:31.715Z,12.50
2022-11-23T17:23:01.156Z,12.51
2022-11-23T17:25:27.918Z,12.50
2022-11-23T17:27:54.493Z,12.52
2022-11-23T17:30:22.359Z,12.49
2022-11-23T17:32:49.640Z,12.48
2022-11-23T17:35:16.857Z,12.47
2022-11-23T17:37:43.910Z,12.46
2022-11-23T17:40:15.663Z,12.45
2022-11-23T17:42:42.196Z,12.42
2022-11-23T17:45:09.138Z,12.38
2022-11-23T17:47:36.211Z,12.38
2022-11-23T17:50:03.151Z,12.37
2022-11-23T17:52:29.767Z,12.36
2022-11-23T17:54:56.300Z,12.35
2022-11-23T17:57:24.573Z,12.34
2022-11-23T17:59:51.659Z,12.31
2022-11-23T18:02:19.497Z,12.28
2022-11-23T18:04:47.353Z,12.27
2022-11-23T18:07:15.377Z,12.29
2022-11-23T18:09:42.778Z,12.29
2022-11-23T18:12:09.923Z,12.28
2022-11-23T18:14:37.277Z,12.26
2022-11-23T18:17:03.911Z,12.28
2022-11-23T18:19:30.680Z,12.28
2022-11-23T18:21:57.296Z,12.28
2022-11-23T18:24:24.025Z,12.26
2022-11-23T18:26:50.662Z,12.22
2022-11-23T18:29:17.596Z,12.22
2022-11-23T18:31:44.355Z,12.23
2022-11-23T18:34:11.091Z,12.25
2022-11-23T18:36:37.658Z,12.25
2022-11-23T18:39:04.187Z,12.23
2022-11-23T18:41:30.890Z,12.23
2022-11-23T18:43:57.355Z,12.23
2022-11-23T18:46:24.332Z,12.19
2022-11-23T18:48:51.522Z,12.18
2022-11-23T18:51:18.325Z,12.18
2022-11-23T18:53:47.398Z,12.17
2022-11-23T18:56:14.088Z,12.15
2022-11-23T18:58:42.260Z,12.13
2022-11-23T19:01:14.323Z,12.09
2022-11-23T19:03:42.292Z,12.06
2022-11-23T19:06:13.576Z,12.00
2022-11-23T19:08:42.322Z,11.98
2022-11-23T19:11:16.096Z,11.94
2022-11-23T19:13:47.072Z,11.94
2022-11-23T19:16:16.425Z,11.93
2022-11-23T19:18:43.470Z,11.94
2022-11-23T19:21:13.323Z,11.92
2022-11-23T19:23:40.166Z,11.91
2022-11-23T19:26:06.802Z,11.90
2022-11-23T19:28:33.949Z,11.86
2022-11-23T19:31:18.788Z,11.83
2022-11-23T19:33:47.292Z,11.82
2022-11-23T19:36:19.358Z,11.80
2022-11-23T19:38:46.094Z,11.75
2022-11-23T19:41:12.731Z,11.74
2022-11-23T19:43:39.469Z,11.71
2022-11-23T19:46:07.511Z,11.67
2022-11-23T19:48:34.690Z,11.65
2022-11-23T19:51:04.644Z,11.62
2022-11-23T19:53:35.438Z,11.59
2022-11-23T19:56:07.397Z,11.56
2022-11-23T19:58:35.058Z,11.55
2022-11-23T20:01:07.328Z,11.53
2022-11-23T20:03:34.680Z,11.51
2022-11-23T20:06:03.841Z,11.46
2022-11-23T20:08:30.687Z,11.44
2022-11-23T20:10:57.665Z,11.41
2022-11-23T20:13:24.674Z,11.42
2022-11-23T20:15:51.403Z,11.41
2022-11-23T20:18:19.075Z,11.42
2022-11-23T20:20:47.431Z,11.43
2022-11-23T20:23:17.089Z,11.44
2022-11-23T20:25:43.697Z,11.46
2022-11-23T20:28:16.303Z,11.46
2022-11-23T20:30:43.454Z,11.45
2022-11-23T20:33:10.292Z,11.47
2022-11-23T20:35:36.928Z,11.48
2022-11-23T20:38:05.203Z,11.49
2022-11-23T20:40:32.635Z,11.49
2022-11-23T20:42:59.601Z,11.52
2022-11-23T20:45:26.749Z,11.53
2022-11-23T20:47:54.717Z,11.53
2022-11-23T20:50:27.028Z,11.55
2022-11-23T20:52:54.954Z,11.55
2022-11-23T20:55:23.369Z,11.58
2022-11-23T20:57:51.413Z,11.59
2022-11-23T21:00:20.599Z,11.59
2022-11-23T21:02:55.767Z,11.61
2022-11-23T21:05:22.414Z,11.63
2022-11-23T21:07:49.059Z,11.65
2022-11-23T21:10:34.288Z,11.67
2022-11-23T21:13:22.829Z,11.68
2022-11-23T21:15:49.492Z,11.70
2022-11-23T21:18:16.101Z,11.72
2022-11-23T21:20:43.428Z,11.71
2022-11-23T21:23:10.091Z,11.75
2022-11-23T21:25:36.626Z,11.77
2022-11-23T21:28:03.416Z,11.78
2022-11-23T21:30:30.927Z,11.77
2022-11-23T21:32:57.573Z,11.81
2022-11-23T21:35:24.787Z,11.83
2022-11-23T21:37:51.445Z,11.84
2022-11-23T21:40:18.184Z,11.86
2022-11-23T21:42:44.887Z,11.85
2022-11-23T21:45:12.073Z,11.85
2022-11-23T21:47:38.709Z,11.86
2022-11-23T21:50:05.555Z,11.87
2022-11-23T21:52:32.187Z,11.89
2022-11-23T21:54:58.719Z,11.88
2022-11-23T21:57:25.356Z,11.88
2022-11-23T21:59:51.890Z,11.86
2022-11-23T22:02:18.459Z,11.88
2022-11-23T22:04:45.167Z,11.88
2022-11-23T22:07:12.055Z,11.88
2022-11-23T22:09:38.847Z,11.87
2022-11-23T22:12:06.304Z,11.85
2022-11-23T22:14:33.134Z,11.84
2022-11-23T22:17:00.604Z,11.85
2022-11-23T22:19:27.348Z,11.85
2022-11-23T22:21:53.974Z,11.82
2022-11-23T22:24:22.569Z,11.80
2022-11-23T22:26:49.396Z,11.79
2022-11-23T22:29:16.339Z,11.79
2022-11-23T22:31:43.894Z,11.80
2022-11-23T22:34:12.082Z,11.77
2022-11-23T22:36:39.058Z,11.78
2022-11-23T22:39:06.883Z,11.77
2022-11-23T22:41:36.860Z,11.74
2022-11-23T22:44:06.196Z,11.73
2022-11-23T22:46:32.935Z,11.73
2022-11-23T22:48:59.877Z,11.74
2022-11-23T22:51:28.590Z,11.75
2022-11-23T22:54:00.219Z,11.75
2022-11-23T22:56:27.676Z,11.74
2022-11-23T22:58:54.413Z,11.74
2022-11-23T23:01:24.939Z,11.73
2022-11-23T23:03:56.037Z,11.73
2022-11-23T23:06:25.591Z,11.72
2022-11-23T23:09:03.287Z,11.73
2022-11-23T23:11:32.373Z,11.71
2022-11-23T23:13:59.827Z,11.69
2022-11-23T23:16:27.172Z,11.68
2022-11-23T23:18:58.027Z,11.69
2022-11-23T23:21:26.608Z,11.68
2022-11-23T23:23:55.696Z,11.68
2022-11-23T23:26:24.582Z,11.69
2022-11-23T23:28:56.184Z,11.69
2022-11-23T23:31:23.137Z,11.68
2022-11-23T23:33:49.918Z,11.70
2022-11-23T23:36:19.833Z,11.70
2022-11-23T23:38:46.877Z,11.72
2022-11-23T23:41:14.641Z,11.72
2022-11-23T23:43:43.136Z,11.70
2022-11-23T23:46:12.524Z,11.72
2022-11-23T23:48:40.182Z,11.73
2022-11-23T23:51:08.660Z,11.74
2022-11-23T23:53:36.427Z,11.74
2022-11-23T23:56:05.734Z,11.75
2022-11-23T23:58:32.358Z,11.75
